sensor_id;sensor_type;location;lat;lon;timestamp;P1;durP1;ratioP1;P2;durP2;ratioP2
85405;SDS011;76779;42.664;23.284;2024-02-21T15:42:52;9.00;;;3.15;;
85405;SDS011;76779;42.664;23.284;2024-02-21T15:45:18;4.65;;;2.95;;
85405;SDS011;76779;42.664;23.284;2024-02-21T15:47:44;6.78;;;3.90;;
85405;SDS011;76779;42.664;23.284;2024-02-21T15:50:10;12.45;;;3.10;;
85405;SDS011;76779;42.664;23.284;2024-02-21T15:52:36;7.30;;;3.38;;
85405;SDS011;76779;42.664;23.284;2024-02-21T15:55:03;11.60;;;3.92;;
85405;SDS011;76779;42.664;23.284;2024-02-21T15:57:29;9.68;;;3.70;;
85405;SDS011;76779;42.664;23.284;2024-02-21T15:59:57;10.38;;;3.83;;
85405;SDS011;76779;42.664;23.284;2024-02-21T16:02:22;9.00;;;3.63;;
85405;SDS011;76779;42.664;23.284;2024-02-21T16:04:49;10.70;;;3.85;;
85405;SDS011;76779;42.664;23.284;2024-02-21T16:07:15;7.22;;;3.72;;
85405;SDS011;76779;42.664;23.284;2024-02-21T16:09:40;8.50;;;3.47;;
85405;SDS011;76779;42.664;23.284;2024-02-21T16:12:09;5.97;;;3.60;;
85405;SDS011;76779;42.664;23.284;2024-02-21T16:14:35;5.90;;;3.65;;
85405;SDS011;76779;42.664;23.284;2024-02-21T16:17:02;7.45;;;3.42;;
85405;SDS011;76779;42.664;23.284;2024-02-21T16:19:30;8.15;;;3.70;;
85405;SDS011;76779;42.664;23.284;2024-02-21T16:21:59;7.70;;;3.20;;
85405;SDS011;76779;42.664;23.284;2024-02-21T16:24:25;6.82;;;3.90;;
85405;SDS011;76779;42.664;23.284;2024-02-21T16:26:51;8.00;;;3.50;;
85405;SDS011;76779;42.664;23.284;2024-02-21T16:29:17;8.70;;;3.05;;
85405;SDS011;76779;42.664;23.284;2024-02-21T16:31:42;5.65;;;3.47;;
85405;SDS011;76779;42.664;23.284;2024-02-21T16:34:08;8.07;;;3.53;;
85405;SDS011;76779;42.664;23.284;2024-02-21T16:36:34;5.57;;;2.80;;
85405;SDS011;76779;42.664;23.284;2024-02-21T16:38:59;6.65;;;4.00;;
85405;SDS011;76779;42.664;23.284;2024-02-21T16:41:26;9.80;;;3.67;;
85405;SDS011;76779;42.664;23.284;2024-02-21T16:46:18;8.52;;;3.65;;
85405;SDS011;76779;42.664;23.284;2024-02-21T16:51:11;4.15;;;3.20;;
85405;SDS011;76779;42.664;23.284;2024-02-21T16:53:36;6.60;;;3.63;;
85405;SDS011;76779;42.664;23.284;2024-02-21T16:56:02;5.38;;;3.33;;
85405;SDS011;76779;42.664;23.284;2024-02-21T16:58:28;6.97;;;3.60;;
85405;SDS011;76779;42.664;23.284;2024-02-21T17:01:04;4.45;;;3.38;;
85405;SDS011;76779;42.664;23.284;2024-02-21T17:03:34;7.53;;;3.95;;
85405;SDS011;76779;42.664;23.284;2024-02-21T17:06:00;5.97;;;3.47;;
85405;SDS011;76779;42.664;23.284;2024-02-21T17:08:26;5.05;;;3.20;;
85405;SDS011;76779;42.664;23.284;2024-02-21T17:10:53;5.95;;;3.40;;
85405;SDS011;76779;42.664;23.284;2024-02-21T17:13:19;6.63;;;3.42;;
85405;SDS011;76779;42.664;23.284;2024-02-21T17:15:46;7.78;;;3.08;;
85405;SDS011;76779;42.664;23.284;2024-02-21T17:18:13;5.78;;;3.45;;
85405;SDS011;76779;42.664;23.284;2024-02-21T17:20:38;7.32;;;3.58;;
85405;SDS011;76779;42.664;23.284;2024-02-21T17:23:04;8.57;;;4.00;;
85405;SDS011;76779;42.664;23.284;2024-02-21T17:25:30;6.93;;;4.03;;
85405;SDS011;76779;42.664;23.284;2024-02-21T17:27:56;6.80;;;3.40;;
85405;SDS011;76779;42.664;23.284;2024-02-21T17:30:21;6.63;;;3.60;;
85405;SDS011;76779;42.664;23.284;2024-02-21T17:32:47;7.85;;;3.70;;
85405;SDS011;76779;42.664;23.284;2024-02-21T17:35:12;11.23;;;3.75;;
85405;SDS011;76779;42.664;23.284;2024-02-21T17:37:38;8.07;;;4.05;;
85405;SDS011;76779;42.664;23.284;2024-02-21T17:40:04;9.15;;;3.63;;
85405;SDS011;76779;42.664;23.284;2024-02-21T17:42:33;5.90;;;3.38;;
85405;SDS011;76779;42.664;23.284;2024-02-21T17:44:59;9.38;;;4.10;;
85405;SDS011;76779;42.664;23.284;2024-02-21T17:47:24;4.68;;;3.45;;
85405;SDS011;76779;42.664;23.284;2024-02-21T17:49:50;6.80;;;3.67;;
85405;SDS011;76779;42.664;23.284;2024-02-21T17:52:15;7.30;;;3.80;;
85405;SDS011;76779;42.664;23.284;2024-02-21T17:54:41;8.25;;;3.92;;
85405;SDS011;76779;42.664;23.284;2024-02-21T17:57:09;8.82;;;4.10;;
85405;SDS011;76779;42.664;23.284;2024-02-21T17:59:38;7.50;;;3.50;;
85405;SDS011;76779;42.664;23.284;2024-02-21T18:02:08;7.10;;;3.90;;
85405;SDS011;76779;42.664;23.284;2024-02-21T18:04:34;7.13;;;3.83;;
85405;SDS011;76779;42.664;23.284;2024-02-21T18:07:00;7.80;;;3.90;;
85405;SDS011;76779;42.664;23.284;2024-02-21T18:09:25;5.93;;;3.78;;
85405;SDS011;76779;42.664;23.284;2024-02-21T18:11:51;5.85;;;3.70;;
85405;SDS011;76779;42.664;23.284;2024-02-21T18:14:16;7.03;;;4.35;;
85405;SDS011;76779;42.664;23.284;2024-02-21T18:16:42;7.35;;;3.90;;
85405;SDS011;76779;42.664;23.284;2024-02-21T18:19:07;7.18;;;3.92;;
85405;SDS011;76779;42.664;23.284;2024-02-21T18:21:33;8.15;;;4.40;;
85405;SDS011;76779;42.664;23.284;2024-02-21T18:23:59;10.05;;;4.32;;
85405;SDS011;76779;42.664;23.284;2024-02-21T18:26:24;7.22;;;4.15;;
85405;SDS011;76779;42.664;23.284;2024-02-21T18:28:50;5.78;;;4.15;;
85405;SDS011;76779;42.664;23.284;2024-02-21T18:31:17;6.63;;;4.10;;
85405;SDS011;76779;42.664;23.284;2024-02-21T18:33:43;5.70;;;4.22;;
85405;SDS011;76779;42.664;23.284;2024-02-21T18:36:10;8.80;;;5.38;;
85405;SDS011;76779;42.664;23.284;2024-02-21T18:38:36;6.57;;;4.25;;
85405;SDS011;76779;42.664;23.284;2024-02-21T18:41:02;8.45;;;4.38;;
85405;SDS011;76779;42.664;23.284;2024-02-21T18:43:27;6.38;;;4.40;;
85405;SDS011;76779;42.664;23.284;2024-02-21T18:45:53;6.40;;;4.60;;
85405;SDS011;76779;42.664;23.284;2024-02-21T18:51:40;8.82;;;4.30;;
85405;SDS011;76779;42.664;23.284;2024-02-21T18:54:06;606.05;;;194.05;;
85405;SDS011;76779;42.664;23.284;2024-02-21T18:56:31;610.58;;;178.35;;
85405;SDS011;76779;42.664;23.284;2024-02-21T18:58:57;623.17;;;190.88;;
85405;SDS011;76779;42.664;23.284;2024-02-21T19:01:23;1004.00;;;347.50;;
85405;SDS011;76779;42.664;23.284;2024-02-21T19:03:49;1096.82;;;388.90;;
85405;SDS011;76779;42.664;23.284;2024-02-21T19:06:14;1117.40;;;409.92;;
85405;SDS011;76779;42.664;23.284;2024-02-21T19:08:40;1131.78;;;405.27;;
85405;SDS011;76779;42.664;23.284;2024-02-21T19:11:09;1570.78;;;552.88;;
85405;SDS011;76779;42.664;23.284;2024-02-21T19:13:35;831.00;;;299.50;;
85405;SDS011;76779;42.664;23.284;2024-02-21T19:16:01;803.35;;;280.63;;
85405;SDS011;76779;42.664;23.284;2024-02-21T19:18:26;757.47;;;267.52;;
85405;SDS011;76779;42.664;23.284;2024-02-21T19:20:52;695.15;;;244.05;;
85405;SDS011;76779;42.664;23.284;2024-02-21T19:23:18;662.65;;;233.98;;
85405;SDS011;76779;42.664;23.284;2024-02-21T19:25:44;622.05;;;211.90;;
85405;SDS011;76779;42.664;23.284;2024-02-21T19:28:10;610.22;;;205.38;;
85405;SDS011;76779;42.664;23.284;2024-02-21T19:30:36;536.25;;;185.13;;
85405;SDS011;76779;42.664;23.284;2024-02-21T19:33:05;557.35;;;187.40;;
85405;SDS011;76779;42.664;23.284;2024-02-21T19:35:32;529.05;;;170.65;;
85405;SDS011;76779;42.664;23.284;2024-02-21T19:37:58;506.17;;;168.05;;
85405;SDS011;76779;42.664;23.284;2024-02-21T19:40:27;515.85;;;168.13;;
85405;SDS011;76779;42.664;23.284;2024-02-21T19:42:54;490.45;;;147.63;;
85405;SDS011;76779;42.664;23.284;2024-02-21T19:45:19;506.50;;;156.90;;
85405;SDS011;76779;42.664;23.284;2024-02-21T19:47:45;466.33;;;140.50;;
85405;SDS011;76779;42.664;23.284;2024-02-21T19:50:11;451.40;;;135.48;;
85405;SDS011;76779;42.664;23.284;2024-02-21T19:52:40;471.83;;;143.30;;
85405;SDS011;76779;42.664;23.284;2024-02-21T19:55:07;428.17;;;127.97;;
85405;SDS011;76779;42.664;23.284;2024-02-21T19:57:33;439.75;;;132.43;;
85405;SDS011;76779;42.664;23.284;2024-02-21T19:59:59;418.40;;;125.07;;
85405;SDS011;76779;42.664;23.284;2024-02-21T20:02:24;384.08;;;112.13;;
85405;SDS011;76779;42.664;23.284;2024-02-21T20:04:51;340.58;;;101.18;;
85405;SDS011;76779;42.664;23.284;2024-02-21T20:07:16;401.67;;;120.65;;
85405;SDS011;76779;42.664;23.284;2024-02-21T20:09:42;370.08;;;111.80;;
85405;SDS011;76779;42.664;23.284;2024-02-21T20:12:07;363.70;;;108.53;;
85405;SDS011;76779;42.664;23.284;2024-02-21T20:14:33;354.80;;;107.05;;
85405;SDS011;76779;42.664;23.284;2024-02-21T20:16:59;342.15;;;103.45;;
85405;SDS011;76779;42.664;23.284;2024-02-21T20:19:24;307.88;;;91.97;;
85405;SDS011;76779;42.664;23.284;2024-02-21T20:21:50;332.17;;;102.78;;
85405;SDS011;76779;42.664;23.284;2024-02-21T20:24:15;293.70;;;88.75;;
85405;SDS011;76779;42.664;23.284;2024-02-21T20:26:41;284.60;;;89.45;;
85405;SDS011;76779;42.664;23.284;2024-02-21T20:29:10;313.38;;;91.97;;
85405;SDS011;76779;42.664;23.284;2024-02-21T20:31:40;277.42;;;83.70;;
85405;SDS011;76779;42.664;23.284;2024-02-21T20:34:11;270.95;;;82.43;;
85405;SDS011;76779;42.664;23.284;2024-02-21T20:36:41;277.77;;;83.60;;
85405;SDS011;76779;42.664;23.284;2024-02-21T20:39:10;277.80;;;82.35;;
85405;SDS011;76779;42.664;23.284;2024-02-21T20:41:36;253.88;;;79.82;;
85405;SDS011;76779;42.664;23.284;2024-02-21T20:44:05;251.70;;;75.15;;
85405;SDS011;76779;42.664;23.284;2024-02-21T20:46:31;227.57;;;73.80;;
85405;SDS011;76779;42.664;23.284;2024-02-21T20:48:57;241.57;;;73.28;;
85405;SDS011;76779;42.664;23.284;2024-02-21T20:51:23;226.07;;;67.95;;
85405;SDS011;76779;42.664;23.284;2024-02-21T20:53:48;221.40;;;66.43;;
85405;SDS011;76779;42.664;23.284;2024-02-21T20:56:14;216.82;;;65.57;;
85405;SDS011;76779;42.664;23.284;2024-02-21T20:58:41;204.77;;;63.97;;
85405;SDS011;76779;42.664;23.284;2024-02-21T21:01:07;207.02;;;66.15;;
85405;SDS011;76779;42.664;23.284;2024-02-21T21:03:32;195.57;;;61.80;;
85405;SDS011;76779;42.664;23.284;2024-02-21T21:05:58;194.65;;;59.53;;
85405;SDS011;76779;42.664;23.284;2024-02-21T21:08:24;176.25;;;58.20;;
85405;SDS011;76779;42.664;23.284;2024-02-21T21:10:49;181.63;;;58.00;;
85405;SDS011;76779;42.664;23.284;2024-02-21T21:13:15;182.55;;;58.15;;
85405;SDS011;76779;42.664;23.284;2024-02-21T21:15:40;178.30;;;57.00;;
85405;SDS011;76779;42.664;23.284;2024-02-21T21:18:06;166.05;;;53.47;;
85405;SDS011;76779;42.664;23.284;2024-02-21T21:20:31;164.38;;;52.05;;
85405;SDS011;76779;42.664;23.284;2024-02-21T21:22:59;170.65;;;51.30;;
85405;SDS011;76779;42.664;23.284;2024-02-21T21:25:25;148.25;;;51.05;;
85405;SDS011;76779;42.664;23.284;2024-02-21T21:27:50;142.77;;;47.08;;
85405;SDS011;76779;42.664;23.284;2024-02-21T21:30:17;133.43;;;45.72;;
85405;SDS011;76779;42.664;23.284;2024-02-21T21:32:44;139.20;;;45.55;;
85405;SDS011;76779;42.664;23.284;2024-02-21T21:35:10;122.53;;;42.00;;
85405;SDS011;76779;42.664;23.284;2024-02-21T21:37:36;124.55;;;42.60;;
85405;SDS011;76779;42.664;23.284;2024-02-21T21:40:02;116.63;;;40.72;;
85405;SDS011;76779;42.664;23.284;2024-02-21T21:44:54;112.60;;;39.22;;
85405;SDS011;76779;42.664;23.284;2024-02-21T21:47:20;122.30;;;39.40;;
85405;SDS011;76779;42.664;23.284;2024-02-21T21:49:45;111.45;;;38.17;;
85405;SDS011;76779;42.664;23.284;2024-02-21T21:52:11;104.57;;;35.83;;
85405;SDS011;76779;42.664;23.284;2024-02-21T21:54:37;99.43;;;34.60;;
85405;SDS011;76779;42.664;23.284;2024-02-21T21:57:02;90.05;;;35.97;;
85405;SDS011;76779;42.664;23.284;2024-02-21T21:59:29;93.95;;;33.13;;
85405;SDS011;76779;42.664;23.284;2024-02-21T22:01:55;90.68;;;31.90;;
85405;SDS011;76779;42.664;23.284;2024-02-21T22:04:20;85.85;;;31.95;;
85405;SDS011;76779;42.664;23.284;2024-02-21T22:06:46;83.63;;;31.25;;
85405;SDS011;76779;42.664;23.284;2024-02-21T22:09:11;79.47;;;29.25;;
85405;SDS011;76779;42.664;23.284;2024-02-21T22:11:37;77.38;;;28.50;;
85405;SDS011;76779;42.664;23.284;2024-02-21T22:14:03;76.80;;;28.45;;
85405;SDS011;76779;42.664;23.284;2024-02-21T22:16:28;74.82;;;27.98;;
85405;SDS011;76779;42.664;23.284;2024-02-21T22:18:53;82.05;;;27.45;;
85405;SDS011;76779;42.664;23.284;2024-02-21T22:21:19;66.82;;;25.33;;
85405;SDS011;76779;42.664;23.284;2024-02-21T22:23:44;65.60;;;24.10;;
85405;SDS011;76779;42.664;23.284;2024-02-21T22:26:11;63.50;;;25.27;;
85405;SDS011;76779;42.664;23.284;2024-02-21T22:28:37;64.47;;;25.35;;
85405;SDS011;76779;42.664;23.284;2024-02-21T22:31:02;59.47;;;23.38;;
85405;SDS011;76779;42.664;23.284;2024-02-21T22:33:28;58.78;;;23.10;;
85405;SDS011;76779;42.664;23.284;2024-02-21T22:35:54;57.55;;;21.63;;
85405;SDS011;76779;42.664;23.284;2024-02-21T22:38:19;54.97;;;21.85;;
85405;SDS011;76779;42.664;23.284;2024-02-21T22:40:45;52.80;;;20.58;;
85405;SDS011;76779;42.664;23.284;2024-02-21T22:43:10;52.95;;;20.40;;
85405;SDS011;76779;42.664;23.284;2024-02-21T22:45:35;52.85;;;20.33;;
85405;SDS011;76779;42.664;23.284;2024-02-21T22:48:01;51.67;;;20.40;;
85405;SDS011;76779;42.664;23.284;2024-02-21T22:50:27;46.85;;;19.40;;
85405;SDS011;76779;42.664;23.284;2024-02-21T22:52:52;50.88;;;20.17;;
85405;SDS011;76779;42.664;23.284;2024-02-21T22:55:18;43.70;;;17.92;;
85405;SDS011;76779;42.664;23.284;2024-02-21T22:57:43;45.08;;;17.67;;
85405;SDS011;76779;42.664;23.284;2024-02-21T23:00:09;43.30;;;17.25;;
85405;SDS011;76779;42.664;23.284;2024-02-21T23:02:40;35.15;;;16.02;;
85405;SDS011;76779;42.664;23.284;2024-02-21T23:05:08;39.25;;;15.93;;
85405;SDS011;76779;42.664;23.284;2024-02-21T23:07:33;40.90;;;15.95;;
85405;SDS011;76779;42.664;23.284;2024-02-21T23:09:59;40.60;;;15.75;;
85405;SDS011;76779;42.664;23.284;2024-02-21T23:12:25;39.67;;;16.38;;
85405;SDS011;76779;42.664;23.284;2024-02-21T23:14:52;34.28;;;13.55;;
85405;SDS011;76779;42.664;23.284;2024-02-21T23:17:18;36.88;;;14.68;;
85405;SDS011;76779;42.664;23.284;2024-02-21T23:19:43;32.50;;;13.48;;
85405;SDS011;76779;42.664;23.284;2024-02-21T23:22:09;32.38;;;13.65;;
85405;SDS011;76779;42.664;23.284;2024-02-21T23:24:34;33.25;;;13.30;;
85405;SDS011;76779;42.664;23.284;2024-02-21T23:27:00;31.40;;;12.93;;
85405;SDS011;76779;42.664;23.284;2024-02-21T23:29:26;31.63;;;12.68;;
85405;SDS011;76779;42.664;23.284;2024-02-21T23:31:51;29.33;;;12.52;;
85405;SDS011;76779;42.664;23.284;2024-02-21T23:34:17;28.25;;;11.43;;
85405;SDS011;76779;42.664;23.284;2024-02-21T23:36:43;27.70;;;11.90;;
85405;SDS011;76779;42.664;23.284;2024-02-21T23:39:08;28.73;;;11.57;;
85405;SDS011;76779;42.664;23.284;2024-02-21T23:41:34;24.48;;;11.45;;
85405;SDS011;76779;42.664;23.284;2024-02-21T23:43:59;24.10;;;10.90;;
85405;SDS011;76779;42.664;23.284;2024-02-21T23:46:25;22.60;;;10.68;;
85405;SDS011;76779;42.664;23.284;2024-02-21T23:48:50;21.60;;;10.38;;
85405;SDS011;76779;42.664;23.284;2024-02-21T23:51:16;24.58;;;10.13;;
85405;SDS011;76779;42.664;23.284;2024-02-21T23:53:42;22.48;;;9.73;;
85405;SDS011;76779;42.664;23.284;2024-02-21T23:56:08;21.42;;;10.15;;
85405;SDS011;76779;42.664;23.284;2024-02-21T23:58:34;21.48;;;9.65;;
